Terminal Aerodrome Forecast
Issued by NWS Hastings, NE

Home | Current Version | Previous Version | Text Only | Print | Product List | Glossary On
Versions: 1 2 3 4 5 6 7 8 9 10 11 12 13 14 15 16
000
FTUS43 KGID 271206 RRA
TAFGRI
TAF
KGRI 271206Z 2712/2812 17007KT P6SM FEW100
     FM271500 18011KT P6SM FEW035
     FM271800 17015G22KT P6SM SCT020 BKN035
     FM272300 15010KT P6SM SCT020 BKN200
     FM280400 16009KT 6SM BR SCT007 BKN015
     FM280900 24010KT P6SM SCT015=

USA.gov is the U.S. government's official web portal to all federal, state and local government web resources and services.